sensor_id;sensor_type;location;lat;lon;timestamp;P1;durP1;ratioP1;P2;durP2;ratioP2
26038;SDS011;13815;52.374;4.882;2023-06-14T00:00:37;32.63;;;20.15;;
26038;SDS011;13815;52.374;4.882;2023-06-14T00:03:07;26.80;;;19.80;;
26038;SDS011;13815;52.374;4.882;2023-06-14T00:05:36;37.03;;;20.75;;
26038;SDS011;13815;52.374;4.882;2023-06-14T00:08:06;40.70;;;21.48;;
26038;SDS011;13815;52.374;4.882;2023-06-14T00:10:33;30.73;;;20.55;;
26038;SDS011;13815;52.374;4.882;2023-06-14T00:13:00;27.75;;;20.60;;
26038;SDS011;13815;52.374;4.882;2023-06-14T00:15:26;46.03;;;22.20;;
26038;SDS011;13815;52.374;4.882;2023-06-14T00:17:52;56.60;;;23.00;;
26038;SDS011;13815;52.374;4.882;2023-06-14T00:20:17;31.88;;;21.02;;
26038;SDS011;13815;52.374;4.882;2023-06-14T00:22:42;41.08;;;21.90;;
26038;SDS011;13815;52.374;4.882;2023-06-14T00:25:08;37.38;;;21.17;;
26038;SDS011;13815;52.374;4.882;2023-06-14T00:27:33;29.75;;;20.90;;
26038;SDS011;13815;52.374;4.882;2023-06-14T00:29:59;28.83;;;21.00;;
26038;SDS011;13815;52.374;4.882;2023-06-14T00:32:24;35.05;;;21.33;;
26038;SDS011;13815;52.374;4.882;2023-06-14T00:34:51;31.20;;;20.98;;
26038;SDS011;13815;52.374;4.882;2023-06-14T00:37:16;38.75;;;21.00;;
26038;SDS011;13815;52.374;4.882;2023-06-14T00:39:41;39.50;;;21.13;;
26038;SDS011;13815;52.374;4.882;2023-06-14T00:42:07;38.60;;;21.38;;
26038;SDS011;13815;52.374;4.882;2023-06-14T00:44:32;32.42;;;20.98;;
26038;SDS011;13815;52.374;4.882;2023-06-14T00:47:00;36.70;;;21.10;;
26038;SDS011;13815;52.374;4.882;2023-06-14T00:49:26;38.05;;;21.02;;
26038;SDS011;13815;52.374;4.882;2023-06-14T00:51:52;30.02;;;20.85;;
26038;SDS011;13815;52.374;4.882;2023-06-14T00:54:20;28.08;;;20.80;;
26038;SDS011;13815;52.374;4.882;2023-06-14T00:56:46;43.47;;;21.63;;
26038;SDS011;13815;52.374;4.882;2023-06-14T00:59:11;38.47;;;21.35;;
26038;SDS011;13815;52.374;4.882;2023-06-14T01:01:37;35.03;;;21.48;;
26038;SDS011;13815;52.374;4.882;2023-06-14T01:04:03;49.88;;;22.13;;
26038;SDS011;13815;52.374;4.882;2023-06-14T01:09:35;39.88;;;21.85;;
26038;SDS011;13815;52.374;4.882;2023-06-14T01:14:32;40.47;;;22.02;;
26038;SDS011;13815;52.374;4.882;2023-06-14T01:16:59;41.67;;;22.05;;
26038;SDS011;13815;52.374;4.882;2023-06-14T01:19:25;41.65;;;22.13;;
26038;SDS011;13815;52.374;4.882;2023-06-14T01:21:53;38.35;;;22.00;;
26038;SDS011;13815;52.374;4.882;2023-06-14T01:24:20;37.67;;;22.15;;
26038;SDS011;13815;52.374;4.882;2023-06-14T01:26:51;45.65;;;22.20;;
26038;SDS011;13815;52.374;4.882;2023-06-14T01:29:20;37.95;;;21.67;;
26038;SDS011;13815;52.374;4.882;2023-06-14T01:31:47;40.85;;;22.15;;
26038;SDS011;13815;52.374;4.882;2023-06-14T01:34:12;41.65;;;22.40;;
26038;SDS011;13815;52.374;4.882;2023-06-14T01:36:38;43.17;;;22.75;;
26038;SDS011;13815;52.374;4.882;2023-06-14T01:39:06;47.05;;;23.08;;
26038;SDS011;13815;52.374;4.882;2023-06-14T01:41:31;42.40;;;22.60;;
26038;SDS011;13815;52.374;4.882;2023-06-14T01:43:58;35.72;;;22.10;;
26038;SDS011;13815;52.374;4.882;2023-06-14T01:46:23;35.35;;;22.17;;
26038;SDS011;13815;52.374;4.882;2023-06-14T01:48:49;35.55;;;22.08;;
26038;SDS011;13815;52.374;4.882;2023-06-14T01:51:15;49.92;;;24.08;;
26038;SDS011;13815;52.374;4.882;2023-06-14T01:53:40;41.78;;;22.80;;
26038;SDS011;13815;52.374;4.882;2023-06-14T01:56:06;40.03;;;22.13;;
26038;SDS011;13815;52.374;4.882;2023-06-14T01:58:31;34.60;;;22.00;;
26038;SDS011;13815;52.374;4.882;2023-06-14T02:00:56;35.90;;;22.05;;
26038;SDS011;13815;52.374;4.882;2023-06-14T02:03:23;35.97;;;22.10;;
26038;SDS011;13815;52.374;4.882;2023-06-14T02:05:49;42.55;;;22.95;;
26038;SDS011;13815;52.374;4.882;2023-06-14T02:08:14;40.95;;;22.65;;
26038;SDS011;13815;52.374;4.882;2023-06-14T02:10:39;36.28;;;22.52;;
26038;SDS011;13815;52.374;4.882;2023-06-14T02:13:05;42.63;;;22.50;;
26038;SDS011;13815;52.374;4.882;2023-06-14T02:15:30;51.22;;;23.17;;
26038;SDS011;13815;52.374;4.882;2023-06-14T02:17:58;43.25;;;22.73;;
26038;SDS011;13815;52.374;4.882;2023-06-14T02:20:25;33.90;;;22.10;;
26038;SDS011;13815;52.374;4.882;2023-06-14T02:22:50;46.80;;;23.00;;
26038;SDS011;13815;52.374;4.882;2023-06-14T02:25:15;46.30;;;23.00;;
26038;SDS011;13815;52.374;4.882;2023-06-14T02:27:41;37.53;;;22.50;;
26038;SDS011;13815;52.374;4.882;2023-06-14T02:30:06;35.40;;;22.42;;
26038;SDS011;13815;52.374;4.882;2023-06-14T02:32:32;43.00;;;22.67;;
26038;SDS011;13815;52.374;4.882;2023-06-14T02:35:00;41.90;;;22.52;;
26038;SDS011;13815;52.374;4.882;2023-06-14T02:37:26;45.78;;;23.38;;
26038;SDS011;13815;52.374;4.882;2023-06-14T02:39:51;39.30;;;22.48;;
26038;SDS011;13815;52.374;4.882;2023-06-14T02:42:16;43.17;;;22.58;;
26038;SDS011;13815;52.374;4.882;2023-06-14T02:44:42;42.22;;;22.55;;
26038;SDS011;13815;52.374;4.882;2023-06-14T02:47:08;37.88;;;22.60;;
26038;SDS011;13815;52.374;4.882;2023-06-14T02:49:33;42.90;;;22.75;;
26038;SDS011;13815;52.374;4.882;2023-06-14T02:51:59;44.92;;;23.02;;
26038;SDS011;13815;52.374;4.882;2023-06-14T02:54:24;37.40;;;22.33;;
26038;SDS011;13815;52.374;4.882;2023-06-14T02:56:50;35.75;;;22.75;;
26038;SDS011;13815;52.374;4.882;2023-06-14T02:59:15;46.08;;;22.67;;
26038;SDS011;13815;52.374;4.882;2023-06-14T03:01:44;60.38;;;24.20;;
26038;SDS011;13815;52.374;4.882;2023-06-14T03:04:10;44.28;;;22.70;;
26038;SDS011;13815;52.374;4.882;2023-06-14T03:06:35;39.70;;;22.30;;
26038;SDS011;13815;52.374;4.882;2023-06-14T03:09:02;46.50;;;22.73;;
26038;SDS011;13815;52.374;4.882;2023-06-14T03:11:31;33.58;;;21.63;;
26038;SDS011;13815;52.374;4.882;2023-06-14T03:13:57;36.92;;;21.83;;
26038;SDS011;13815;52.374;4.882;2023-06-14T03:16:22;48.85;;;22.92;;
26038;SDS011;13815;52.374;4.882;2023-06-14T03:18:52;37.53;;;22.13;;
26038;SDS011;13815;52.374;4.882;2023-06-14T03:21:20;40.20;;;22.33;;
26038;SDS011;13815;52.374;4.882;2023-06-14T03:23:47;48.70;;;22.40;;
26038;SDS011;13815;52.374;4.882;2023-06-14T03:26:12;43.05;;;21.98;;
26038;SDS011;13815;52.374;4.882;2023-06-14T03:28:46;41.97;;;21.50;;
26038;SDS011;13815;52.374;4.882;2023-06-14T03:31:12;32.92;;;21.30;;
26038;SDS011;13815;52.374;4.882;2023-06-14T03:33:38;35.28;;;21.40;;
26038;SDS011;13815;52.374;4.882;2023-06-14T03:36:04;48.38;;;21.95;;
26038;SDS011;13815;52.374;4.882;2023-06-14T03:38:30;41.55;;;21.63;;
26038;SDS011;13815;52.374;4.882;2023-06-14T03:40:55;31.88;;;20.63;;
26038;SDS011;13815;52.374;4.882;2023-06-14T03:43:21;44.22;;;21.73;;
26038;SDS011;13815;52.374;4.882;2023-06-14T03:45:46;38.30;;;21.10;;
26038;SDS011;13815;52.374;4.882;2023-06-14T03:48:12;32.42;;;20.63;;
26038;SDS011;13815;52.374;4.882;2023-06-14T03:50:37;46.22;;;21.65;;
26038;SDS011;13815;52.374;4.882;2023-06-14T03:53:03;29.98;;;20.33;;
26038;SDS011;13815;52.374;4.882;2023-06-14T03:55:29;35.85;;;20.70;;
26038;SDS011;13815;52.374;4.882;2023-06-14T03:57:56;52.38;;;22.60;;
26038;SDS011;13815;52.374;4.882;2023-06-14T04:00:21;34.17;;;20.73;;
26038;SDS011;13815;52.374;4.882;2023-06-14T04:02:47;39.90;;;20.65;;
26038;SDS011;13815;52.374;4.882;2023-06-14T04:05:12;28.58;;;19.83;;
26038;SDS011;13815;52.374;4.882;2023-06-14T04:07:38;42.58;;;20.92;;
26038;SDS011;13815;52.374;4.882;2023-06-14T04:10:10;46.53;;;20.92;;
26038;SDS011;13815;52.374;4.882;2023-06-14T04:12:36;32.53;;;20.10;;
26038;SDS011;13815;52.374;4.882;2023-06-14T04:15:02;33.60;;;20.00;;
26038;SDS011;13815;52.374;4.882;2023-06-14T04:17:27;57.00;;;21.98;;
26038;SDS011;13815;52.374;4.882;2023-06-14T04:19:53;36.42;;;20.50;;
26038;SDS011;13815;52.374;4.882;2023-06-14T04:22:18;31.10;;;19.83;;
26038;SDS011;13815;52.374;4.882;2023-06-14T04:24:44;35.78;;;20.50;;
26038;SDS011;13815;52.374;4.882;2023-06-14T04:27:09;33.55;;;20.15;;
26038;SDS011;13815;52.374;4.882;2023-06-14T04:29:35;47.47;;;21.40;;
26038;SDS011;13815;52.374;4.882;2023-06-14T04:32:01;40.55;;;20.40;;
26038;SDS011;13815;52.374;4.882;2023-06-14T04:34:26;33.30;;;20.13;;
26038;SDS011;13815;52.374;4.882;2023-06-14T04:36:54;40.63;;;20.52;;
26038;SDS011;13815;52.374;4.882;2023-06-14T04:39:24;42.65;;;20.50;;
26038;SDS011;13815;52.374;4.882;2023-06-14T04:41:51;34.67;;;19.98;;
26038;SDS011;13815;52.374;4.882;2023-06-14T04:44:17;41.42;;;20.25;;
26038;SDS011;13815;52.374;4.882;2023-06-14T04:46:43;36.08;;;20.10;;
26038;SDS011;13815;52.374;4.882;2023-06-14T04:49:12;43.83;;;20.30;;
26038;SDS011;13815;52.374;4.882;2023-06-14T04:51:40;35.05;;;20.08;;
26038;SDS011;13815;52.374;4.882;2023-06-14T04:54:07;48.72;;;21.58;;
26038;SDS011;13815;52.374;4.882;2023-06-14T04:56:35;42.75;;;20.33;;
26038;SDS011;13815;52.374;4.882;2023-06-14T04:59:02;33.40;;;20.05;;
26038;SDS011;13815;52.374;4.882;2023-06-14T05:01:29;41.58;;;20.63;;
26038;SDS011;13815;52.374;4.882;2023-06-14T05:03:56;44.67;;;20.70;;
26038;SDS011;13815;52.374;4.882;2023-06-14T05:06:22;34.08;;;20.20;;
26038;SDS011;13815;52.374;4.882;2023-06-14T05:08:47;41.13;;;20.35;;
26038;SDS011;13815;52.374;4.882;2023-06-14T05:11:13;28.77;;;19.85;;
26038;SDS011;13815;52.374;4.882;2023-06-14T05:13:39;32.70;;;20.05;;
26038;SDS011;13815;52.374;4.882;2023-06-14T05:16:05;52.50;;;22.27;;
26038;SDS011;13815;52.374;4.882;2023-06-14T05:18:31;34.17;;;20.80;;
26038;SDS011;13815;52.374;4.882;2023-06-14T05:20:59;38.63;;;20.73;;
26038;SDS011;13815;52.374;4.882;2023-06-14T05:23:24;39.60;;;20.85;;
26038;SDS011;13815;52.374;4.882;2023-06-14T05:25:50;40.83;;;20.55;;
26038;SDS011;13815;52.374;4.882;2023-06-14T05:28:15;37.40;;;20.20;;
26038;SDS011;13815;52.374;4.882;2023-06-14T05:30:41;44.08;;;20.67;;
26038;SDS011;13815;52.374;4.882;2023-06-14T05:33:07;31.80;;;19.67;;
26038;SDS011;13815;52.374;4.882;2023-06-14T05:35:32;45.08;;;20.50;;
26038;SDS011;13815;52.374;4.882;2023-06-14T05:37:58;40.95;;;20.52;;
26038;SDS011;13815;52.374;4.882;2023-06-14T05:40:23;44.88;;;20.80;;
26038;SDS011;13815;52.374;4.882;2023-06-14T05:42:49;41.90;;;20.20;;
26038;SDS011;13815;52.374;4.882;2023-06-14T05:45:14;48.28;;;20.73;;
26038;SDS011;13815;52.374;4.882;2023-06-14T05:47:41;29.45;;;19.48;;
26038;SDS011;13815;52.374;4.882;2023-06-14T05:50:06;46.10;;;20.63;;
26038;SDS011;13815;52.374;4.882;2023-06-14T05:52:32;32.33;;;19.50;;
26038;SDS011;13815;52.374;4.882;2023-06-14T05:54:58;35.35;;;20.17;;
26038;SDS011;13815;52.374;4.882;2023-06-14T05:57:27;49.80;;;21.63;;
26038;SDS011;13815;52.374;4.882;2023-06-14T05:59:52;45.60;;;20.45;;
26038;SDS011;13815;52.374;4.882;2023-06-14T06:02:17;41.60;;;20.50;;
26038;SDS011;13815;52.374;4.882;2023-06-14T06:04:43;36.50;;;20.48;;
26038;SDS011;13815;52.374;4.882;2023-06-14T06:07:08;43.58;;;20.77;;
26038;SDS011;13815;52.374;4.882;2023-06-14T06:09:34;34.55;;;19.85;;
26038;SDS011;13815;52.374;4.882;2023-06-14T06:11:59;40.90;;;20.73;;
26038;SDS011;13815;52.374;4.882;2023-06-14T06:14:25;45.03;;;21.20;;
26038;SDS011;13815;52.374;4.882;2023-06-14T06:16:50;37.47;;;20.50;;
26038;SDS011;13815;52.374;4.882;2023-06-14T06:19:17;36.47;;;20.92;;
26038;SDS011;13815;52.374;4.882;2023-06-14T06:21:43;53.08;;;22.33;;
26038;SDS011;13815;52.374;4.882;2023-06-14T06:24:08;39.65;;;21.15;;
26038;SDS011;13815;52.374;4.882;2023-06-14T06:26:34;40.30;;;21.00;;
26038;SDS011;13815;52.374;4.882;2023-06-14T06:28:59;36.22;;;21.10;;
26038;SDS011;13815;52.374;4.882;2023-06-14T06:31:25;57.55;;;22.90;;
26038;SDS011;13815;52.374;4.882;2023-06-14T06:33:54;46.17;;;21.55;;
26038;SDS011;13815;52.374;4.882;2023-06-14T06:36:19;43.13;;;21.23;;
26038;SDS011;13815;52.374;4.882;2023-06-14T06:38:47;48.35;;;21.95;;
26038;SDS011;13815;52.374;4.882;2023-06-14T06:41:12;38.17;;;21.42;;
26038;SDS011;13815;52.374;4.882;2023-06-14T06:43:38;58.10;;;23.30;;
26038;SDS011;13815;52.374;4.882;2023-06-14T06:46:03;45.80;;;22.27;;
26038;SDS011;13815;52.374;4.882;2023-06-14T06:48:28;47.95;;;21.88;;
26038;SDS011;13815;52.374;4.882;2023-06-14T06:50:54;39.15;;;21.63;;
26038;SDS011;13815;52.374;4.882;2023-06-14T06:53:19;47.30;;;22.38;;
26038;SDS011;13815;52.374;4.882;2023-06-14T06:55:45;69.90;;;25.30;;
26038;SDS011;13815;52.374;4.882;2023-06-14T06:58:11;45.78;;;23.05;;
26038;SDS011;13815;52.374;4.882;2023-06-14T07:00:37;46.42;;;22.95;;
26038;SDS011;13815;52.374;4.882;2023-06-14T07:03:02;43.20;;;22.38;;
26038;SDS011;13815;52.374;4.882;2023-06-14T07:05:29;43.15;;;22.50;;
26038;SDS011;13815;52.374;4.882;2023-06-14T07:07:54;57.85;;;23.83;;
26038;SDS011;13815;52.374;4.882;2023-06-14T07:10:20;50.03;;;22.83;;
26038;SDS011;13815;52.374;4.882;2023-06-14T07:12:45;44.88;;;22.38;;
26038;SDS011;13815;52.374;4.882;2023-06-14T07:15:11;60.30;;;23.23;;
26038;SDS011;13815;52.374;4.882;2023-06-14T07:17:36;67.43;;;23.55;;
26038;SDS011;13815;52.374;4.882;2023-06-14T07:20:02;74.82;;;24.63;;
26038;SDS011;13815;52.374;4.882;2023-06-14T07:22:43;46.10;;;22.58;;
26038;SDS011;13815;52.374;4.882;2023-06-14T07:25:11;41.75;;;22.38;;
26038;SDS011;13815;52.374;4.882;2023-06-14T07:27:39;65.18;;;23.90;;
26038;SDS011;13815;52.374;4.882;2023-06-14T07:30:08;61.17;;;22.85;;
26038;SDS011;13815;52.374;4.882;2023-06-14T07:32:33;61.53;;;23.58;;
26038;SDS011;13815;52.374;4.882;2023-06-14T07:35:01;49.95;;;23.17;;
26038;SDS011;13815;52.374;4.882;2023-06-14T07:37:28;45.85;;;23.17;;
26038;SDS011;13815;52.374;4.882;2023-06-14T07:39:53;76.22;;;25.50;;
26038;SDS011;13815;52.374;4.882;2023-06-14T07:42:18;52.67;;;23.60;;
26038;SDS011;13815;52.374;4.882;2023-06-14T07:44:44;61.75;;;23.95;;
26038;SDS011;13815;52.374;4.882;2023-06-14T07:47:10;63.65;;;23.42;;
26038;SDS011;13815;52.374;4.882;2023-06-14T07:49:35;54.92;;;23.70;;
26038;SDS011;13815;52.374;4.882;2023-06-14T07:52:00;54.47;;;23.63;;
26038;SDS011;13815;52.374;4.882;2023-06-14T07:54:26;59.20;;;23.42;;
26038;SDS011;13815;52.374;4.882;2023-06-14T07:56:52;66.88;;;24.10;;
26038;SDS011;13815;52.374;4.882;2023-06-14T07:59:18;73.50;;;24.92;;
26038;SDS011;13815;52.374;4.882;2023-06-14T08:01:43;68.95;;;24.27;;
26038;SDS011;13815;52.374;4.882;2023-06-14T08:04:13;64.72;;;24.05;;
26038;SDS011;13815;52.374;4.882;2023-06-14T08:06:39;53.08;;;23.33;;
26038;SDS011;13815;52.374;4.882;2023-06-14T08:09:04;57.47;;;23.63;;
26038;SDS011;13815;52.374;4.882;2023-06-14T08:11:30;62.13;;;24.20;;
26038;SDS011;13815;52.374;4.882;2023-06-14T08:13:56;67.35;;;24.65;;
26038;SDS011;13815;52.374;4.882;2023-06-14T08:16:21;71.95;;;24.70;;
26038;SDS011;13815;52.374;4.882;2023-06-14T08:18:47;63.20;;;24.42;;
26038;SDS011;13815;52.374;4.882;2023-06-14T08:21:13;53.80;;;23.88;;
26038;SDS011;13815;52.374;4.882;2023-06-14T08:23:40;63.47;;;24.60;;
26038;SDS011;13815;52.374;4.882;2023-06-14T08:26:06;66.72;;;25.33;;
26038;SDS011;13815;52.374;4.882;2023-06-14T08:28:32;69.63;;;24.50;;
26038;SDS011;13815;52.374;4.882;2023-06-14T08:30:57;49.90;;;23.48;;
26038;SDS011;13815;52.374;4.882;2023-06-14T08:33:22;73.20;;;25.05;;
26038;SDS011;13815;52.374;4.882;2023-06-14T08:35:48;71.45;;;25.52;;
26038;SDS011;13815;52.374;4.882;2023-06-14T08:38:13;68.53;;;25.17;;
26038;SDS011;13815;52.374;4.882;2023-06-14T08:40:39;66.07;;;25.40;;
26038;SDS011;13815;52.374;4.882;2023-06-14T08:43:05;68.18;;;25.63;;
26038;SDS011;13815;52.374;4.882;2023-06-14T08:45:30;79.75;;;27.00;;
26038;SDS011;13815;52.374;4.882;2023-06-14T08:47:56;78.28;;;26.60;;
26038;SDS011;13815;52.374;4.882;2023-06-14T08:50:24;77.07;;;25.75;;
26038;SDS011;13815;52.374;4.882;2023-06-14T08:52:57;72.53;;;25.77;;
26038;SDS011;13815;52.374;4.882;2023-06-14T08:55:27;98.70;;;27.50;;
26038;SDS011;13815;52.374;4.882;2023-06-14T08:57:55;83.78;;;26.65;;
26038;SDS011;13815;52.374;4.882;2023-06-14T09:00:22;70.32;;;25.67;;
26038;SDS011;13815;52.374;4.882;2023-06-14T09:02:49;67.10;;;24.90;;
26038;SDS011;13815;52.374;4.882;2023-06-14T09:05:15;55.33;;;24.75;;
26038;SDS011;13815;52.374;4.882;2023-06-14T09:07:43;73.25;;;26.00;;
26038;SDS011;13815;52.374;4.882;2023-06-14T09:10:09;68.38;;;26.08;;
26038;SDS011;13815;52.374;4.882;2023-06-14T09:12:39;60.72;;;26.25;;
26038;SDS011;13815;52.374;4.882;2023-06-14T09:15:05;81.35;;;27.83;;
26038;SDS011;13815;52.374;4.882;2023-06-14T09:17:38;75.30;;;26.60;;
26038;SDS011;13815;52.374;4.882;2023-06-14T09:20:04;69.20;;;26.40;;
26038;SDS011;13815;52.374;4.882;2023-06-14T09:22:38;62.08;;;26.20;;
26038;SDS011;13815;52.374;4.882;2023-06-14T09:25:04;52.53;;;25.38;;
26038;SDS011;13815;52.374;4.882;2023-06-14T09:27:30;63.35;;;27.35;;
26038;SDS011;13815;52.374;4.882;2023-06-14T09:29:56;69.18;;;26.83;;
26038;SDS011;13815;52.374;4.882;2023-06-14T09:32:21;62.97;;;26.90;;
26038;SDS011;13815;52.374;4.882;2023-06-14T09:34:47;73.30;;;28.13;;
26038;SDS011;13815;52.374;4.882;2023-06-14T09:37:13;66.47;;;27.02;;
26038;SDS011;13815;52.374;4.882;2023-06-14T09:39:51;64.75;;;26.75;;
26038;SDS011;13815;52.374;4.882;2023-06-14T09:42:17;61.95;;;27.50;;
26038;SDS011;13815;52.374;4.882;2023-06-14T09:44:43;56.45;;;27.77;;
26038;SDS011;13815;52.374;4.882;2023-06-14T09:47:12;72.00;;;28.70;;
26038;SDS011;13815;52.374;4.882;2023-06-14T09:49:38;87.18;;;29.88;;
26038;SDS011;13815;52.374;4.882;2023-06-14T09:52:04;64.90;;;28.23;;
26038;SDS011;13815;52.374;4.882;2023-06-14T09:54:30;66.00;;;28.33;;
26038;SDS011;13815;52.374;4.882;2023-06-14T09:56:57;82.55;;;29.60;;
26038;SDS011;13815;52.374;4.882;2023-06-14T09:59:26;72.57;;;27.63;;
26038;SDS011;13815;52.374;4.882;2023-06-14T10:01:54;81.32;;;28.17;;
26038;SDS011;13815;52.374;4.882;2023-06-14T10:04:23;74.85;;;28.00;;
26038;SDS011;13815;52.374;4.882;2023-06-14T10:06:49;90.60;;;28.98;;
26038;SDS011;13815;52.374;4.882;2023-06-14T10:09:15;73.80;;;27.83;;
26038;SDS011;13815;52.374;4.882;2023-06-14T10:11:41;67.28;;;27.75;;
26038;SDS011;13815;52.374;4.882;2023-06-14T10:14:09;66.20;;;27.95;;
26038;SDS011;13815;52.374;4.882;2023-06-14T10:16:42;74.38;;;28.27;;
26038;SDS011;13815;52.374;4.882;2023-06-14T10:22:01;82.63;;;29.20;;
26038;SDS011;13815;52.374;4.882;2023-06-14T10:24:33;60.60;;;26.48;;
26038;SDS011;13815;52.374;4.882;2023-06-14T10:27:05;86.60;;;29.25;;
26038;SDS011;13815;52.374;4.882;2023-06-14T10:29:35;91.53;;;30.13;;
26038;SDS011;13815;52.374;4.882;2023-06-14T10:32:24;60.65;;;26.73;;
26038;SDS011;13815;52.374;4.882;2023-06-14T10:35:04;82.25;;;28.73;;
26038;SDS011;13815;52.374;4.882;2023-06-14T10:37:32;69.20;;;28.60;;
26038;SDS011;13815;52.374;4.882;2023-06-14T10:39:58;78.35;;;29.30;;
26038;SDS011;13815;52.374;4.882;2023-06-14T10:42:27;75.25;;;29.00;;
26038;SDS011;13815;52.374;4.882;2023-06-14T10:44:55;77.55;;;28.77;;
26038;SDS011;13815;52.374;4.882;2023-06-14T10:47:25;64.05;;;27.17;;
26038;SDS011;13815;52.374;4.882;2023-06-14T10:50:12;71.35;;;27.10;;
26038;SDS011;13815;52.374;4.882;2023-06-14T10:52:43;70.28;;;28.25;;
26038;SDS011;13815;52.374;4.882;2023-06-14T10:57:45;64.43;;;27.83;;
26038;SDS011;13815;52.374;4.882;2023-06-14T11:00:11;78.28;;;28.70;;
26038;SDS011;13815;52.374;4.882;2023-06-14T11:02:49;83.00;;;29.33;;
26038;SDS011;13815;52.374;4.882;2023-06-14T11:05:54;66.85;;;27.25;;
26038;SDS011;13815;52.374;4.882;2023-06-14T11:08:29;65.72;;;27.90;;
26038;SDS011;13815;52.374;4.882;2023-06-14T11:11:08;60.38;;;26.95;;
26038;SDS011;13815;52.374;4.882;2023-06-14T11:13:36;69.03;;;28.27;;
26038;SDS011;13815;52.374;4.882;2023-06-14T11:16:09;82.00;;;28.75;;
26038;SDS011;13815;52.374;4.882;2023-06-14T11:21:01;67.47;;;28.30;;
26038;SDS011;13815;52.374;4.882;2023-06-14T11:23:26;62.33;;;27.33;;
26038;SDS011;13815;52.374;4.882;2023-06-14T11:25:52;73.88;;;28.40;;
26038;SDS011;13815;52.374;4.882;2023-06-14T11:28:17;81.05;;;28.77;;
26038;SDS011;13815;52.374;4.882;2023-06-14T11:30:45;57.75;;;26.88;;
26038;SDS011;13815;52.374;4.882;2023-06-14T11:33:11;67.55;;;27.42;;
26038;SDS011;13815;52.374;4.882;2023-06-14T11:35:37;68.13;;;27.55;;
26038;SDS011;13815;52.374;4.882;2023-06-14T11:41:24;67.85;;;28.35;;
26038;SDS011;13815;52.374;4.882;2023-06-14T11:43:52;52.83;;;27.35;;
26038;SDS011;13815;52.374;4.882;2023-06-14T11:46:17;79.72;;;29.23;;
26038;SDS011;13815;52.374;4.882;2023-06-14T11:48:47;67.32;;;27.50;;
26038;SDS011;13815;52.374;4.882;2023-06-14T11:51:12;55.10;;;27.98;;
26038;SDS011;13815;52.374;4.882;2023-06-14T11:53:37;68.85;;;28.80;;
26038;SDS011;13815;52.374;4.882;2023-06-14T11:56:03;91.50;;;30.73;;
26038;SDS011;13815;52.374;4.882;2023-06-14T11:58:29;83.07;;;30.17;;
26038;SDS011;13815;52.374;4.882;2023-06-14T12:00:54;56.03;;;26.75;;
26038;SDS011;13815;52.374;4.882;2023-06-14T12:03:24;63.50;;;27.50;;
26038;SDS011;13815;52.374;4.882;2023-06-14T12:06:05;55.60;;;27.50;;
26038;SDS011;13815;52.374;4.882;2023-06-14T12:08:35;76.82;;;27.60;;
26038;SDS011;13815;52.374;4.882;2023-06-14T12:11:04;69.38;;;27.55;;
26038;SDS011;13815;52.374;4.882;2023-06-14T12:13:40;77.00;;;28.13;;
26038;SDS011;13815;52.374;4.882;2023-06-14T12:16:08;81.00;;;28.55;;
26038;SDS011;13815;52.374;4.882;2023-06-14T12:18:35;58.42;;;27.73;;
26038;SDS011;13815;52.374;4.882;2023-06-14T12:21:03;67.72;;;28.65;;
26038;SDS011;13815;52.374;4.882;2023-06-14T12:26:13;82.97;;;30.33;;
26038;SDS011;13815;52.374;4.882;2023-06-14T12:28:42;71.32;;;27.77;;
26038;SDS011;13815;52.374;4.882;2023-06-14T12:31:10;55.47;;;27.13;;
26038;SDS011;13815;52.374;4.882;2023-06-14T12:33:37;74.07;;;28.15;;
26038;SDS011;13815;52.374;4.882;2023-06-14T12:36:06;62.50;;;27.73;;
26038;SDS011;13815;52.374;4.882;2023-06-14T12:38:32;76.93;;;29.10;;
26038;SDS011;13815;52.374;4.882;2023-06-14T12:40:58;81.75;;;29.23;;
26038;SDS011;13815;52.374;4.882;2023-06-14T12:43:23;71.32;;;29.38;;
26038;SDS011;13815;52.374;4.882;2023-06-14T12:45:49;68.72;;;28.17;;
26038;SDS011;13815;52.374;4.882;2023-06-14T12:48:14;93.55;;;30.42;;
26038;SDS011;13815;52.374;4.882;2023-06-14T12:50:40;66.78;;;29.23;;
26038;SDS011;13815;52.374;4.882;2023-06-14T12:53:06;73.45;;;28.08;;
26038;SDS011;13815;52.374;4.882;2023-06-14T12:55:32;75.32;;;28.13;;
26038;SDS011;13815;52.374;4.882;2023-06-14T12:57:58;63.95;;;27.75;;
26038;SDS011;13815;52.374;4.882;2023-06-14T13:00:23;61.50;;;28.13;;
26038;SDS011;13815;52.374;4.882;2023-06-14T13:02:50;67.53;;;28.20;;
26038;SDS011;13815;52.374;4.882;2023-06-14T13:05:17;74.55;;;29.23;;
26038;SDS011;13815;52.374;4.882;2023-06-14T13:07:42;85.03;;;29.60;;
26038;SDS011;13815;52.374;4.882;2023-06-14T13:10:08;95.50;;;30.17;;
26038;SDS011;13815;52.374;4.882;2023-06-14T13:12:33;75.13;;;28.30;;
26038;SDS011;13815;52.374;4.882;2023-06-14T13:14:59;89.95;;;29.33;;
26038;SDS011;13815;52.374;4.882;2023-06-14T13:17:24;77.15;;;28.60;;
26038;SDS011;13815;52.374;4.882;2023-06-14T13:19:50;78.38;;;28.98;;
26038;SDS011;13815;52.374;4.882;2023-06-14T13:22:15;64.75;;;26.42;;
26038;SDS011;13815;52.374;4.882;2023-06-14T13:24:40;63.75;;;27.25;;
26038;SDS011;13815;52.374;4.882;2023-06-14T13:27:06;76.35;;;28.42;;
26038;SDS011;13815;52.374;4.882;2023-06-14T13:29:31;89.57;;;28.88;;
26038;SDS011;13815;52.374;4.882;2023-06-14T13:31:58;61.17;;;28.30;;
26038;SDS011;13815;52.374;4.882;2023-06-14T13:34:23;81.40;;;28.25;;
26038;SDS011;13815;52.374;4.882;2023-06-14T13:36:49;81.90;;;28.42;;
26038;SDS011;13815;52.374;4.882;2023-06-14T13:39:14;65.57;;;27.05;;
26038;SDS011;13815;52.374;4.882;2023-06-14T13:41:40;81.78;;;29.58;;
26038;SDS011;13815;52.374;4.882;2023-06-14T13:44:06;73.90;;;29.55;;
26038;SDS011;13815;52.374;4.882;2023-06-14T13:46:31;67.20;;;28.42;;
26038;SDS011;13815;52.374;4.882;2023-06-14T13:48:57;71.53;;;27.42;;
26038;SDS011;13815;52.374;4.882;2023-06-14T13:51:23;69.32;;;27.73;;
26038;SDS011;13815;52.374;4.882;2023-06-14T13:53:48;65.13;;;27.90;;
26038;SDS011;13815;52.374;4.882;2023-06-14T13:56:15;68.50;;;27.67;;
26038;SDS011;13815;52.374;4.882;2023-06-14T13:58:41;65.72;;;28.27;;
26038;SDS011;13815;52.374;4.882;2023-06-14T14:01:06;69.07;;;28.10;;
26038;SDS011;13815;52.374;4.882;2023-06-14T14:03:32;67.15;;;27.75;;
26038;SDS011;13815;52.374;4.882;2023-06-14T14:05:58;74.55;;;28.33;;
26038;SDS011;13815;52.374;4.882;2023-06-14T14:08:23;70.70;;;27.85;;
26038;SDS011;13815;52.374;4.882;2023-06-14T14:10:49;78.38;;;28.17;;
26038;SDS011;13815;52.374;4.882;2023-06-14T14:13:15;66.03;;;26.88;;
26038;SDS011;13815;52.374;4.882;2023-06-14T14:15:43;62.30;;;26.98;;
26038;SDS011;13815;52.374;4.882;2023-06-14T14:18:09;84.13;;;29.05;;
26038;SDS011;13815;52.374;4.882;2023-06-14T14:20:34;76.47;;;28.08;;
26038;SDS011;13815;52.374;4.882;2023-06-14T14:23:00;71.45;;;28.05;;
26038;SDS011;13815;52.374;4.882;2023-06-14T14:25:25;78.50;;;28.23;;
26038;SDS011;13815;52.374;4.882;2023-06-14T14:27:51;68.50;;;27.33;;
26038;SDS011;13815;52.374;4.882;2023-06-14T14:30:16;79.32;;;28.25;;
26038;SDS011;13815;52.374;4.882;2023-06-14T14:32:44;99.13;;;30.90;;
26038;SDS011;13815;52.374;4.882;2023-06-14T14:35:09;54.97;;;26.13;;
26038;SDS011;13815;52.374;4.882;2023-06-14T14:37:35;66.25;;;27.23;;